createdAt,value
2023-05-08T00:02:46.073Z,14.4
2023-05-08T00:04:49.957Z,14.3
2023-05-08T00:06:53.799Z,14.3
2023-05-08T00:08:57.733Z,14.4
2023-05-08T00:11:01.623Z,14.4
2023-05-08T00:19:20.104Z,14.3
2023-05-08T00:21:24.009Z,14.3
2023-05-08T00:22:27.384Z,14.3
2023-05-08T00:24:31.274Z,14.3
2023-05-08T00:26:35.207Z,14.3
2023-05-08T00:28:39.125Z,14.2
2023-05-08T00:30:45.856Z,14.2
2023-05-08T00:32:49.791Z,14.1
2023-05-08T00:34:53.657Z,14.1
2023-05-08T00:36:57.559Z,14
2023-05-08T00:39:01.492Z,14
2023-05-08T00:41:05.411Z,14
2023-05-08T00:45:16.039Z,14.1
2023-05-08T01:01:50.227Z,13.7
2023-05-08T01:03:54.225Z,13.7
2023-05-08T01:05:57.964Z,13.7
2023-05-08T01:08:01.972Z,13.6
2023-05-08T01:10:05.768Z,13.6
2023-05-08T01:12:09.680Z,13.6
2023-05-08T01:16:20.335Z,13.5
2023-05-08T01:20:53.838Z,13.5
2023-05-08T01:25:01.707Z,13.5
2023-05-08T01:27:09.815Z,13.3
2023-05-08T01:29:13.727Z,13.3
2023-05-08T01:31:17.658Z,13.3
2023-05-08T01:33:21.617Z,13.3
2023-05-08T01:35:25.427Z,13.2
2023-05-08T01:37:29.337Z,13.2
2023-05-08T01:39:33.236Z,13.2
2023-05-08T01:41:39.955Z,13.2
2023-05-08T01:45:47.761Z,13.1
2023-05-08T01:54:03.329Z,13
2023-05-08T01:56:10.033Z,13
2023-05-08T01:58:13.936Z,13.1
2023-05-08T02:06:29.526Z,13
2023-05-08T02:08:33.436Z,12.8
2023-05-08T02:10:40.129Z,12.8
2023-05-08T02:12:44.080Z,12.8
2023-05-08T02:14:47.937Z,12.8
2023-05-08T02:15:51.264Z,12.8
2023-05-08T02:17:55.385Z,12.8
2023-05-08T02:19:59.089Z,12.8
2023-05-08T02:24:09.670Z,12.8
2023-05-08T02:26:13.573Z,12.7
2023-05-08T02:30:21.346Z,12.8
2023-05-08T02:32:25.261Z,12.8
2023-05-08T02:34:29.144Z,12.9
2023-05-08T02:36:33.044Z,12.9
2023-05-08T02:38:39.870Z,12.8
2023-05-08T02:40:43.664Z,12.9
2023-05-08T02:42:47.549Z,12.9
2023-05-08T02:44:51.444Z,12.9
2023-05-08T02:48:59.211Z,12.9
2023-05-08T02:53:09.863Z,12.8
2023-05-08T02:55:13.724Z,12.8
2023-05-08T03:09:43.823Z,12.7
2023-05-08T03:12:51.093Z,12.7
2023-05-08T03:14:54.991Z,12.6
2023-05-08T03:16:58.882Z,12.7
2023-05-08T03:19:02.753Z,12.7
2023-05-08T03:21:09.475Z,12.6
2023-05-08T03:23:13.379Z,12.6
2023-05-08T03:25:17.292Z,12.6
2023-05-08T03:27:21.182Z,12.6
2023-05-08T03:29:25.064Z,12.6
2023-05-08T03:31:29.036Z,12.6
2023-05-08T03:33:32.888Z,12.6
2023-05-08T03:37:43.479Z,12.6
2023-05-08T03:39:47.345Z,12.6
2023-05-08T03:41:51.224Z,12.6
2023-05-08T03:43:55.123Z,12.6
2023-05-08T03:45:58.998Z,12.5
2023-05-08T03:48:02.938Z,12.5
2023-05-08T03:52:13.503Z,12.5
2023-05-08T03:54:17.419Z,12.5
2023-05-08T03:56:21.315Z,12.4
2023-05-08T03:58:25.196Z,12.4
2023-05-08T04:00:29.099Z,12.4
2023-05-08T04:02:33.163Z,12.4
2023-05-08T04:04:39.761Z,12.3
2023-05-08T04:06:49.921Z,12.2
2023-05-08T04:08:47.486Z,12.2
2023-05-08T04:09:50.865Z,12.2
2023-05-08T04:11:54.731Z,12.2
2023-05-08T04:13:58.644Z,12.2
2023-05-08T04:16:02.537Z,12.2
2023-05-08T04:18:09.290Z,12.2
2023-05-08T04:30:32.650Z,12.2
2023-05-08T04:32:40.926Z,12.2
2023-05-08T04:34:43.242Z,12.2
2023-05-08T04:38:50.985Z,12.2
2023-05-08T04:53:20.912Z,12.4
2023-05-08T04:55:24.797Z,12.3
2023-05-08T04:57:28.689Z,12.3
2023-05-08T04:59:32.585Z,12.4
2023-05-08T05:01:39.367Z,12.6
2023-05-08T05:03:43.214Z,12.8
2023-05-08T05:05:47.063Z,13.1
2023-05-08T05:08:05.090Z,13.6
2023-05-08T05:10:08.992Z,13.7
2023-05-08T05:14:19.600Z,13.6
2023-05-08T05:16:23.900Z,13.5
2023-05-08T05:18:27.781Z,14
2023-05-08T05:20:31.678Z,14.3
2023-05-08T05:22:35.575Z,14.4
2023-05-08T05:24:39.471Z,14.3
2023-05-08T05:35:01.869Z,15.1
2023-05-08T05:39:09.611Z,15.2
2023-05-08T05:41:13.512Z,15.5
2023-05-08T05:45:24.164Z,15.6
2023-05-08T05:47:28.092Z,15.4
2023-05-08T05:49:32.003Z,14.7
2023-05-08T05:51:35.895Z,15.1
2023-05-08T05:53:39.804Z,15.8
2023-05-08T05:55:43.730Z,15.9
2023-05-08T05:59:55.040Z,16.6
2023-05-08T06:03:01.873Z,16.8
2023-05-08T06:05:05.605Z,17
2023-05-08T06:07:09.514Z,16.5
2023-05-08T06:09:13.427Z,16.6
2023-05-08T06:13:24.102Z,17
2023-05-08T06:17:31.953Z,17.4
2023-05-08T06:25:50.392Z,17.8
2023-05-08T06:27:54.291Z,18
2023-05-08T06:29:58.210Z,18.6
2023-05-08T06:32:02.099Z,18.1
2023-05-08T06:34:06.016Z,17.3
2023-05-08T06:36:09.905Z,15.7
2023-05-08T06:38:13.818Z,15.1
2023-05-08T06:40:20.573Z,15.1
2023-05-08T06:42:24.466Z,15.2
2023-05-08T06:52:44.041Z,16.3
2023-05-08T06:54:50.781Z,16.8
2023-05-08T06:59:07.638Z,18.1
2023-05-08T07:00:02.007Z,19.4
2023-05-08T07:02:05.962Z,19.4
2023-05-08T07:04:09.837Z,19.7
2023-05-08T07:06:13.678Z,19.9
2023-05-08T07:08:20.419Z,19.5
2023-05-08T07:10:24.323Z,19.3
2023-05-08T07:12:28.220Z,18.1
2023-05-08T07:14:32.090Z,17.8
2023-05-08T07:16:36.018Z,18
2023-05-08T07:18:39.893Z,17.7
2023-05-08T07:20:43.818Z,17.3
2023-05-08T07:22:52.017Z,17
2023-05-08T07:24:55.875Z,17
2023-05-08T07:29:03.689Z,16.8
2023-05-08T07:31:07.737Z,16.7
2023-05-08T07:33:11.484Z,16.7
2023-05-08T07:35:15.627Z,16.7
2023-05-08T07:37:22.093Z,17.4
2023-05-08T07:41:29.980Z,18.3
2023-05-08T07:43:33.806Z,18.3
2023-05-08T07:45:37.726Z,18.7
2023-05-08T07:47:41.699Z,18.7
2023-05-08T07:49:45.494Z,19.3
2023-05-08T07:51:52.246Z,18.9
2023-05-08T07:53:56.124Z,18.7
2023-05-08T07:56:00.034Z,18
2023-05-08T07:57:03.386Z,17.8
2023-05-08T07:59:07.280Z,17.9
2023-05-08T08:01:11.177Z,17.8
2023-05-08T08:03:15.139Z,18.1
2023-05-08T08:09:29.600Z,17.5
2023-05-08T08:11:33.507Z,17.5
2023-05-08T08:13:37.384Z,17.5
2023-05-08T08:15:41.274Z,17.7
2023-05-08T08:17:45.265Z,17.8
2023-05-08T08:19:51.898Z,18.3
2023-05-08T08:21:55.787Z,18.3
2023-05-08T08:23:59.721Z,17.6
2023-05-08T08:26:03.614Z,17.4
2023-05-08T08:28:07.510Z,17.6
2023-05-08T08:30:17.674Z,18.2
2023-05-08T08:32:15.306Z,19.5
2023-05-08T08:34:22.031Z,21
2023-05-08T08:36:25.948Z,21.1
2023-05-08T08:38:29.824Z,20.5
2023-05-08T08:40:33.763Z,20.5
2023-05-08T08:42:37.598Z,19.4
2023-05-08T08:44:41.463Z,18.3
2023-05-08T08:46:45.439Z,18
2023-05-08T08:48:52.071Z,18.1
2023-05-08T08:50:55.962Z,18.2
2023-05-08T08:52:59.868Z,18.4
2023-05-08T08:57:27.355Z,19.5
2023-05-08T08:59:31.225Z,19.9
2023-05-08T09:01:37.974Z,19.8
2023-05-08T09:05:45.708Z,19.3
2023-05-08T09:07:49.573Z,19.8
2023-05-08T09:11:57.317Z,19.6
2023-05-08T09:16:07.942Z,19.2
2023-05-08T09:20:15.889Z,19.3
2023-05-08T09:22:19.510Z,19.1
2023-05-08T09:24:23.401Z,19.2
2023-05-08T09:26:27.271Z,19.5
2023-05-08T09:28:31.134Z,19.7
2023-05-08T09:30:37.868Z,20.9
2023-05-08T09:32:41.777Z,21.5
2023-05-08T09:38:53.303Z,21.2
2023-05-08T09:40:57.174Z,21.9
2023-05-08T09:45:07.708Z,21.8
2023-05-08T09:49:15.407Z,20.8
2023-05-08T09:50:18.751Z,20.6
2023-05-08T09:52:22.617Z,20.6
2023-05-08T09:54:26.460Z,20.7
2023-05-08T09:56:30.276Z,21
2023-05-08T09:58:37.005Z,20.8
2023-05-08T10:00:40.819Z,20.8
2023-05-08T10:02:44.686Z,20.5
2023-05-08T10:04:48.543Z,20.5
2023-05-08T10:06:53.625Z,20.6
2023-05-08T10:08:56.235Z,21.3
2023-05-08T10:11:00.064Z,21.3
2023-05-08T10:15:10.615Z,21.1
2023-05-08T10:19:18.276Z,21.1
2023-05-08T10:21:22.123Z,21.4
2023-05-08T10:23:25.957Z,21.3
2023-05-08T10:25:29.820Z,22.3
2023-05-08T10:27:36.524Z,22.7
2023-05-08T10:29:40.331Z,22.3
2023-05-08T10:31:44.377Z,21.8
2023-05-08T10:33:48.016Z,21.1
2023-05-08T10:35:51.851Z,20.4
2023-05-08T10:37:55.688Z,20.1
2023-05-08T10:39:59.532Z,20
2023-05-08T10:44:10.077Z,19.9
2023-05-08T10:46:13.995Z,19.9
2023-05-08T10:49:21.147Z,19.9
2023-05-08T10:51:24.989Z,19.7
2023-05-08T10:53:28.861Z,19.4
2023-05-08T10:57:39.424Z,19.5
2023-05-08T10:59:43.297Z,19.4
2023-05-08T11:01:47.224Z,19.1
2023-05-08T11:07:58.981Z,18.8
2023-05-08T11:12:09.477Z,18.8
2023-05-08T11:14:13.372Z,18.9
2023-05-08T11:22:29.036Z,18.5
2023-05-08T11:24:35.700Z,18.3
2023-05-08T11:26:39.622Z,18.2
2023-05-08T11:28:43.522Z,18.2
2023-05-08T11:30:47.427Z,17.9
2023-05-08T11:32:51.367Z,17.9
2023-05-08T11:34:55.230Z,17.9
2023-05-08T11:36:59.222Z,17.8
2023-05-08T11:39:05.869Z,17.6
2023-05-08T11:41:09.783Z,17.5
2023-05-08T11:43:13.679Z,17.4
2023-05-08T11:44:17.054Z,17.4
2023-05-08T11:46:20.975Z,17.5
2023-05-08T11:48:24.879Z,17.5
2023-05-08T11:50:28.783Z,17.5
2023-05-08T11:52:35.520Z,17.7
2023-05-08T11:54:39.456Z,17.7
2023-05-08T11:56:44.241Z,17.9
2023-05-08T11:58:47.285Z,18.1
2023-05-08T12:00:51.240Z,18.2
2023-05-08T12:02:55.247Z,18.3
2023-05-08T12:04:59.094Z,18.5
2023-05-08T12:07:05.744Z,18.7
2023-05-08T12:09:09.695Z,19
2023-05-08T12:11:13.586Z,19.3
2023-05-08T12:13:17.652Z,19.4
2023-05-08T12:15:21.396Z,19.5
2023-05-08T12:17:25.468Z,19.5
2023-05-08T12:19:29.221Z,19.3
2023-05-08T12:21:35.983Z,19.1
2023-05-08T12:23:39.888Z,19.2
2023-05-08T12:25:43.810Z,19.3
2023-05-08T12:27:47.721Z,19.3
2023-05-08T12:29:51.600Z,19.4
2023-05-08T12:31:55.552Z,19.4
2023-05-08T12:33:59.440Z,19.2
2023-05-08T12:36:06.194Z,19.3
2023-05-08T12:38:10.101Z,19.3
2023-05-08T12:40:14.156Z,19.4
2023-05-08T12:42:43.587Z,19.3
2023-05-08T12:44:47.509Z,19.5
2023-05-08T12:46:51.499Z,19.8
2023-05-08T12:48:58.144Z,20.3
2023-05-08T12:53:05.962Z,20.5
2023-05-08T12:55:09.879Z,20.3
2023-05-08T12:57:13.783Z,20.1
2023-05-08T12:59:17.671Z,20.1
2023-05-08T13:01:21.599Z,20.2
2023-05-08T13:09:40.040Z,19.7
2023-05-08T13:11:43.975Z,19.7
2023-05-08T13:13:47.840Z,19.8
2023-05-08T13:15:51.802Z,20.2
2023-05-08T13:17:58.509Z,20.9
2023-05-08T13:20:05.286Z,21.4
2023-05-08T13:22:07.744Z,22.1
2023-05-08T13:24:11.646Z,22.5
2023-05-08T13:30:23.353Z,21.1
2023-05-08T13:32:30.113Z,21.2
2023-05-08T13:34:34.845Z,21.2
2023-05-08T13:36:37.841Z,21
2023-05-08T13:37:41.203Z,20.8
2023-05-08T13:39:45.106Z,20.7
2023-05-08T13:41:49.065Z,20.5
2023-05-08T13:43:53.424Z,20.3
2023-05-08T13:48:04.296Z,20.6
2023-05-08T13:50:08.171Z,20.5
2023-05-08T13:56:19.827Z,20.8
2023-05-08T13:58:23.724Z,20.9
2023-05-08T14:00:30.455Z,20.8
2023-05-08T14:02:34.483Z,21
2023-05-08T14:04:38.228Z,21.6
2023-05-08T14:06:42.098Z,21.7
2023-05-08T14:08:47.989Z,21.9
2023-05-08T14:10:49.877Z,22.2
2023-05-08T14:12:53.774Z,21.5
2023-05-08T14:15:00.467Z,21.4
2023-05-08T14:23:15.987Z,21.3
2023-05-08T14:25:19.881Z,21.2
2023-05-08T14:27:23.758Z,21
2023-05-08T14:29:30.493Z,21.2
2023-05-08T14:31:34.531Z,21.5
2023-05-08T14:34:41.584Z,21.4
2023-05-08T14:36:45.485Z,21.3
2023-05-08T14:40:53.239Z,21.4
2023-05-08T14:42:59.952Z,21.5
2023-05-08T14:45:03.913Z,21.6
2023-05-08T14:47:07.702Z,21.5
2023-05-08T14:49:12.430Z,21.1
2023-05-08T14:51:15.444Z,21.3
2023-05-08T14:53:19.440Z,21.5
2023-05-08T14:55:23.351Z,21.5
2023-05-08T14:57:29.917Z,21.4
2023-05-08T14:59:33.816Z,21.4
2023-05-08T15:01:38.515Z,21.1
2023-05-08T15:03:42.521Z,21.3
2023-05-08T15:07:50.149Z,20.9
2023-05-08T15:09:54.001Z,20.9
2023-05-08T15:12:00.702Z,20.6
2023-05-08T15:14:04.596Z,20.5
2023-05-08T15:16:08.501Z,20.2
2023-05-08T15:18:12.344Z,20.1
2023-05-08T15:20:16.215Z,19.9
2023-05-08T15:22:20.094Z,19.7
2023-05-08T15:24:23.975Z,19.4
2023-05-08T15:31:41.921Z,18.3
2023-05-08T15:33:45.769Z,18.3
2023-05-08T15:37:53.578Z,18.1
2023-05-08T15:40:00.315Z,18.3
2023-05-08T15:42:04.221Z,18.4
2023-05-08T15:44:08.132Z,18.6
2023-05-08T15:48:15.938Z,18.8
2023-05-08T15:50:19.828Z,19
2023-05-08T15:52:23.759Z,19
2023-05-08T15:54:30.519Z,19
2023-05-08T15:56:34.410Z,19
2023-05-08T16:00:45.346Z,19.1
2023-05-08T16:04:50.075Z,19
2023-05-08T16:19:20.227Z,19.4
2023-05-08T16:21:24.147Z,19.5
2023-05-08T16:23:30.898Z,19.6
2023-05-08T16:25:34.818Z,19.5
2023-05-08T16:27:38.729Z,19.7
2023-05-08T16:30:08.299Z,19.8
2023-05-08T16:32:12.228Z,19.8
2023-05-08T16:34:16.157Z,19.8
2023-05-08T16:36:22.865Z,19.8
2023-05-08T16:40:30.688Z,19.8
2023-05-08T16:44:38.504Z,19.8
2023-05-08T16:48:46.329Z,19.8
2023-05-08T16:57:04.796Z,19.8
2023-05-08T16:59:08.720Z,19.7
2023-05-08T17:01:12.650Z,19.8
2023-05-08T17:03:16.693Z,19.8
2023-05-08T17:05:23.248Z,19.7
2023-05-08T17:07:27.187Z,19.6
2023-05-08T17:09:31.342Z,19.5
2023-05-08T17:11:35.001Z,19.4
2023-05-08T17:13:38.914Z,19.4
2023-05-08T17:15:42.801Z,19.4
2023-05-08T17:17:46.789Z,19.4
2023-05-08T17:19:53.469Z,19.3
2023-05-08T17:25:04.696Z,19.2
2023-05-08T17:27:08.576Z,19.2
2023-05-08T17:29:12.507Z,19
2023-05-08T17:31:16.430Z,18.9
2023-05-08T17:33:23.153Z,18.8
2023-05-08T17:35:27.059Z,18.8
2023-05-08T17:37:30.972Z,18.7
2023-05-08T17:39:34.859Z,18.8
2023-05-08T17:41:38.771Z,18.8
2023-05-08T17:43:42.663Z,18.9
2023-05-08T17:45:46.613Z,19
2023-05-08T17:47:53.366Z,19
2023-05-08T17:49:57.279Z,19
2023-05-08T17:52:01.164Z,19
2023-05-08T17:54:05.063Z,19
2023-05-08T18:00:16.796Z,18.8
2023-05-08T18:06:31.384Z,18.7
2023-05-08T18:08:35.295Z,18.6
2023-05-08T18:12:43.161Z,18.7
2023-05-08T18:14:47.030Z,18.6
2023-05-08T18:18:57.705Z,18.5
2023-05-08T18:21:01.617Z,18.5
2023-05-08T18:22:05.012Z,18.5
2023-05-08T18:24:08.918Z,18.5
2023-05-08T18:26:12.833Z,18.6
2023-05-08T18:34:31.297Z,18.3
2023-05-08T18:38:39.121Z,18.3
2023-05-08T18:44:53.671Z,17.7
2023-05-08T18:46:57.596Z,17.6
2023-05-08T18:53:09.327Z,17.2
2023-05-08T18:55:13.249Z,17.2
2023-05-08T19:01:27.852Z,17.1
2023-05-08T19:19:06.845Z,16.2
2023-05-08T19:21:10.754Z,16.2
2023-05-08T19:23:14.672Z,16.1
2023-05-08T19:25:18.628Z,16
2023-05-08T19:33:37.104Z,16
2023-05-08T19:35:41.025Z,15.9
2023-05-08T19:37:44.937Z,15.9
2023-05-08T19:39:48.872Z,15.8
2023-05-08T19:41:55.908Z,15.7
2023-05-08T19:43:59.801Z,15.7
2023-05-08T19:46:03.784Z,15.6
2023-05-08T19:48:13.160Z,15.5
2023-05-08T19:50:11.704Z,15.6
2023-05-08T19:52:15.485Z,15.5
2023-05-08T19:54:19.410Z,15.4
2023-05-08T19:56:26.122Z,15.4
2023-05-08T19:58:30.088Z,15.3
2023-05-08T20:00:33.965Z,15.4
2023-05-08T20:06:45.723Z,15.3
2023-05-08T20:08:49.639Z,15.2
2023-05-08T20:10:56.372Z,15.2
2023-05-08T20:13:00.334Z,15.1
2023-05-08T20:17:33.899Z,15.1
2023-05-08T20:19:37.786Z,15.1
2023-05-08T20:21:41.661Z,15
2023-05-08T20:23:48.418Z,15.1
2023-05-08T20:25:52.332Z,15.1
2023-05-08T20:27:56.263Z,15.1
2023-05-08T20:30:00.208Z,15.1
2023-05-08T20:32:04.137Z,15.2
2023-05-08T20:34:08.010Z,15.1
2023-05-08T20:36:11.930Z,15.1
2023-05-08T20:40:22.563Z,15.1
2023-05-08T20:42:26.476Z,15
2023-05-08T20:44:30.412Z,15
2023-05-08T20:46:34.310Z,15.1
2023-05-08T20:48:38.226Z,15
2023-05-08T20:52:48.902Z,15
2023-05-08T20:54:52.815Z,15.1
2023-05-08T20:56:56.738Z,15.1
2023-05-08T20:59:00.650Z,15
2023-05-08T21:07:19.136Z,15.1
2023-05-08T21:09:23.048Z,15.1
2023-05-08T21:11:26.970Z,15
2023-05-08T21:12:30.352Z,15.1
2023-05-08T21:16:38.244Z,15.1
2023-05-08T21:18:42.127Z,15
2023-05-08T21:20:48.807Z,15
2023-05-08T21:22:52.740Z,15
2023-05-08T21:24:56.664Z,15
2023-05-08T21:27:00.561Z,15
2023-05-08T21:29:04.487Z,15
2023-05-08T21:31:08.419Z,15
2023-05-08T21:33:12.311Z,15
2023-05-08T21:37:22.962Z,15
2023-05-08T21:39:26.916Z,15.1
2023-05-08T21:41:30.807Z,15.1
2023-05-08T21:43:34.721Z,15.1
2023-05-08T21:47:42.630Z,15
2023-05-08T21:49:49.283Z,14.9
2023-05-08T21:51:53.238Z,14.9
2023-05-08T21:53:57.132Z,14.9
2023-05-08T21:56:01.064Z,15
2023-05-08T21:58:04.966Z,15
2023-05-08T22:00:08.977Z,14.9
2023-05-08T22:02:12.855Z,14.8
2023-05-08T22:04:19.520Z,14.9
2023-05-08T22:09:30.720Z,14.8
2023-05-08T22:11:34.688Z,14.8
2023-05-08T22:17:49.271Z,14.7
2023-05-08T22:30:12.702Z,14.5
2023-05-08T22:32:19.431Z,14.6
2023-05-08T22:34:23.337Z,14.7
2023-05-08T22:36:27.249Z,14.8
2023-05-08T22:40:35.076Z,14.9
2023-05-08T22:44:42.882Z,15
2023-05-08T22:55:05.277Z,14.9
2023-05-08T22:57:09.167Z,14.8
2023-05-08T22:59:13.072Z,14.9
2023-05-08T23:01:19.861Z,14.9
2023-05-08T23:05:27.627Z,14.9
2023-05-08T23:06:31.004Z,14.8
2023-05-08T23:08:34.937Z,14.8
2023-05-08T23:12:42.766Z,15
2023-05-08T23:16:53.419Z,15
2023-05-08T23:18:57.290Z,15
2023-05-08T23:23:05.119Z,15
2023-05-08T23:25:09.078Z,15
2023-05-08T23:27:12.981Z,15
2023-05-08T23:29:19.718Z,14.9
2023-05-08T23:31:23.644Z,15
2023-05-08T23:37:35.370Z,15
2023-05-08T23:41:43.188Z,15
2023-05-08T23:43:49.940Z,15
2023-05-08T23:50:01.697Z,14.9
2023-05-08T23:56:13.394Z,14.8
